sensor_id;sensor_type;location;lat;lon;timestamp;pressure;altitude;pressure_sealevel;temperature
49593;BMP280;35499;51.482;4.264;2023-03-01T00:01:54;103197.50;;;1.33
49593;BMP280;35499;51.482;4.264;2023-03-01T00:04:19;103195.66;;;1.30
49593;BMP280;35499;51.482;4.264;2023-03-01T00:06:45;103194.72;;;1.28
49593;BMP280;35499;51.482;4.264;2023-03-01T00:09:13;103196.28;;;1.26
49593;BMP280;35499;51.482;4.264;2023-03-01T00:11:39;103188.56;;;1.25
49593;BMP280;35499;51.482;4.264;2023-03-01T00:14:04;103196.09;;;1.24
49593;BMP280;35499;51.482;4.264;2023-03-01T00:16:38;103197.75;;;1.23
49593;BMP280;35499;51.482;4.264;2023-03-01T00:19:04;103199.41;;;1.23
49593;BMP280;35499;51.482;4.264;2023-03-01T00:21:30;103204.28;;;1.20
49593;BMP280;35499;51.482;4.264;2023-03-01T00:23:56;103197.50;;;1.19
49593;BMP280;35499;51.482;4.264;2023-03-01T00:26:23;103197.50;;;1.19
49593;BMP280;35499;51.482;4.264;2023-03-01T00:28:49;103199.03;;;1.17
49593;BMP280;35499;51.482;4.264;2023-03-01T00:31:18;103207.34;;;1.14
49593;BMP280;35499;51.482;4.264;2023-03-01T00:33:44;103204.59;;;1.11
49593;BMP280;35499;51.482;4.264;2023-03-01T00:36:12;103201.03;;;1.08
49593;BMP280;35499;51.482;4.264;2023-03-01T00:38:39;103206.88;;;1.07
49593;BMP280;35499;51.482;4.264;2023-03-01T00:41:06;103207.66;;;1.06
49593;BMP280;35499;51.482;4.264;2023-03-01T00:43:32;103206.69;;;1.04
49593;BMP280;35499;51.482;4.264;2023-03-01T00:46:03;103203.09;;;1.01
49593;BMP280;35499;51.482;4.264;2023-03-01T00:48:29;103202.81;;;0.96
49593;BMP280;35499;51.482;4.264;2023-03-01T00:50:54;103207.88;;;0.96
49593;BMP280;35499;51.482;4.264;2023-03-01T00:53:19;103206.31;;;0.98
49593;BMP280;35499;51.482;4.264;2023-03-01T00:55:45;103204.56;;;0.97
49593;BMP280;35499;51.482;4.264;2023-03-01T00:58:10;103201.25;;;0.98
49593;BMP280;35499;51.482;4.264;2023-03-01T01:00:35;103196.22;;;0.98
49593;BMP280;35499;51.482;4.264;2023-03-01T01:03:01;103201.94;;;0.96
49593;BMP280;35499;51.482;4.264;2023-03-01T01:05:26;103196.88;;;0.96
49593;BMP280;35499;51.482;4.264;2023-03-01T01:07:51;103201.06;;;0.95
49593;BMP280;35499;51.482;4.264;2023-03-01T01:10:17;103201.06;;;0.95
49593;BMP280;35499;51.482;4.264;2023-03-01T01:12:44;103194.28;;;0.94
49593;BMP280;35499;51.482;4.264;2023-03-01T01:15:13;103198.47;;;0.94
49593;BMP280;35499;51.482;4.264;2023-03-01T01:17:41;103194.84;;;0.90
49593;BMP280;35499;51.482;4.264;2023-03-01T01:20:07;103183.84;;;0.90
49593;BMP280;35499;51.482;4.264;2023-03-01T01:22:33;103188.06;;;0.89
49593;BMP280;35499;51.482;4.264;2023-03-01T01:24:58;103186.38;;;0.90
49593;BMP280;35499;51.482;4.264;2023-03-01T01:27:23;103180.38;;;0.88
49593;BMP280;35499;51.482;4.264;2023-03-01T01:29:49;103180.28;;;0.87
49593;BMP280;35499;51.482;4.264;2023-03-01T01:32:14;103166.69;;;0.85
49593;BMP280;35499;51.482;4.264;2023-03-01T01:34:39;103168.25;;;0.83
49593;BMP280;35499;51.482;4.264;2023-03-01T01:37:05;103152.09;;;0.81
49593;BMP280;35499;51.482;4.264;2023-03-01T01:39:33;103157.91;;;0.80
49593;BMP280;35499;51.482;4.264;2023-03-01T01:42:00;103157.84;;;0.78
49593;BMP280;35499;51.482;4.264;2023-03-01T01:44:27;103143.44;;;0.77
49593;BMP280;35499;51.482;4.264;2023-03-01T01:46:54;103152.69;;;0.77
49593;BMP280;35499;51.482;4.264;2023-03-01T01:49:37;103143.34;;;0.76
49593;BMP280;35499;51.482;4.264;2023-03-01T01:52:10;103142.41;;;0.74
49593;BMP280;35499;51.482;4.264;2023-03-01T01:57:11;103137.25;;;0.72
49593;BMP280;35499;51.482;4.264;2023-03-01T01:59:38;103140.66;;;0.73
49593;BMP280;35499;51.482;4.264;2023-03-01T02:02:04;103131.31;;;0.72
49593;BMP280;35499;51.482;4.264;2023-03-01T02:04:31;103143.09;;;0.71
49593;BMP280;35499;51.482;4.264;2023-03-01T02:07:16;103132.78;;;0.69
49593;BMP280;35499;51.482;4.264;2023-03-01T02:09:46;103134.44;;;0.68
49593;BMP280;35499;51.482;4.264;2023-03-01T02:12:13;103138.72;;;0.69
49593;BMP280;35499;51.482;4.264;2023-03-01T02:14:38;103125.97;;;0.68
49593;BMP280;35499;51.482;4.264;2023-03-01T02:17:04;103125.88;;;0.66
49593;BMP280;35499;51.482;4.264;2023-03-01T02:22:27;103111.31;;;0.62
49593;BMP280;35499;51.482;4.264;2023-03-01T02:28:05;103112.19;;;0.63
49593;BMP280;35499;51.482;4.264;2023-03-01T02:30:33;103109.56;;;0.61
49593;BMP280;35499;51.482;4.264;2023-03-01T02:33:00;103100.44;;;0.63
49593;BMP280;35499;51.482;4.264;2023-03-01T02:35:29;103099.66;;;0.64
49593;BMP280;35499;51.482;4.264;2023-03-01T02:37:56;103106.38;;;0.64
49593;BMP280;35499;51.482;4.264;2023-03-01T02:40:22;103109.75;;;0.64
49593;BMP280;35499;51.482;4.264;2023-03-01T02:42:54;103107.13;;;0.63
49593;BMP280;35499;51.482;4.264;2023-03-01T02:45:20;103108.00;;;0.63
49593;BMP280;35499;51.482;4.264;2023-03-01T02:47:46;103106.25;;;0.62
49593;BMP280;35499;51.482;4.264;2023-03-01T02:53:18;103107.81;;;0.60
49593;BMP280;35499;51.482;4.264;2023-03-01T02:55:46;103099.06;;;0.55
49593;BMP280;35499;51.482;4.264;2023-03-01T02:58:11;103098.13;;;0.53
49593;BMP280;35499;51.482;4.264;2023-03-01T03:00:39;103094.53;;;0.50
49593;BMP280;35499;51.482;4.264;2023-03-01T03:03:13;103110.41;;;0.48
49593;BMP280;35499;51.482;4.264;2023-03-01T03:05:40;103096.72;;;0.44
49593;BMP280;35499;51.482;4.264;2023-03-01T03:08:05;103104.19;;;0.43
49593;BMP280;35499;51.482;4.264;2023-03-01T03:10:38;103097.38;;;0.42
49593;BMP280;35499;51.482;4.264;2023-03-01T03:13:10;103109.13;;;0.41
49593;BMP280;35499;51.482;4.264;2023-03-01T03:15:36;103106.50;;;0.40
49593;BMP280;35499;51.482;4.264;2023-03-01T03:18:02;103103.13;;;0.39
49593;BMP280;35499;51.482;4.264;2023-03-01T03:20:28;103102.31;;;0.40
49593;BMP280;35499;51.482;4.264;2023-03-01T03:22:55;103109.13;;;0.41
49593;BMP280;35499;51.482;4.264;2023-03-01T03:25:21;103097.28;;;0.40
49593;BMP280;35499;51.482;4.264;2023-03-01T03:27:48;103103.22;;;0.41
49593;BMP280;35499;51.482;4.264;2023-03-01T03:30:17;103100.78;;;0.42
49593;BMP280;35499;51.482;4.264;2023-03-01T03:32:45;103098.16;;;0.41
49593;BMP280;35499;51.482;4.264;2023-03-01T03:35:21;103101.44;;;0.40
49593;BMP280;35499;51.482;4.264;2023-03-01T03:37:47;103092.06;;;0.37
49593;BMP280;35499;51.482;4.264;2023-03-01T03:40:31;103087.66;;;0.35
49593;BMP280;35499;51.482;4.264;2023-03-01T03:42:56;103083.41;;;0.34
49593;BMP280;35499;51.482;4.264;2023-03-01T03:45:22;103075.75;;;0.33
49593;BMP280;35499;51.482;4.264;2023-03-01T03:47:47;103078.94;;;0.30
49593;BMP280;35499;51.482;4.264;2023-03-01T03:50:14;103078.66;;;0.26
49593;BMP280;35499;51.482;4.264;2023-03-01T03:52:40;103074.22;;;0.22
49593;BMP280;35499;51.482;4.264;2023-03-01T03:55:07;103078.28;;;0.20
49593;BMP280;35499;51.482;4.264;2023-03-01T03:57:41;103073.06;;;0.17
49593;BMP280;35499;51.482;4.264;2023-03-01T04:00:09;103077.06;;;0.14
49593;BMP280;35499;51.482;4.264;2023-03-01T04:02:41;103081.13;;;0.12
49593;BMP280;35499;51.482;4.264;2023-03-01T04:05:08;103081.91;;;0.11
49593;BMP280;35499;51.482;4.264;2023-03-01T04:07:37;103080.94;;;0.09
49593;BMP280;35499;51.482;4.264;2023-03-01T04:10:14;103074.91;;;0.07
49593;BMP280;35499;51.482;4.264;2023-03-01T04:12:40;103078.81;;;0.02
49593;BMP280;35499;51.482;4.264;2023-03-01T04:15:07;103076.09;;;-0.01
49593;BMP280;35499;51.482;4.264;2023-03-01T04:17:44;103085.34;;;-0.01
49593;BMP280;35499;51.482;4.264;2023-03-01T04:20:13;103086.09;;;-0.02
49593;BMP280;35499;51.482;4.264;2023-03-01T04:22:39;103075.13;;;-0.03
49593;BMP280;35499;51.482;4.264;2023-03-01T04:25:05;103079.41;;;-0.02
49593;BMP280;35499;51.482;4.264;2023-03-01T04:27:35;103078.63;;;-0.01
49593;BMP280;35499;51.482;4.264;2023-03-01T04:30:02;103081.34;;;0.02
49593;BMP280;35499;51.482;4.264;2023-03-01T04:32:28;103079.19;;;0.08
49593;BMP280;35499;51.482;4.264;2023-03-01T04:34:53;103079.38;;;0.11
49593;BMP280;35499;51.482;4.264;2023-03-01T04:37:19;103069.47;;;0.14
49593;BMP280;35499;51.482;4.264;2023-03-01T04:39:44;103072.94;;;0.16
49593;BMP280;35499;51.482;4.264;2023-03-01T04:42:13;103070.41;;;0.16
49593;BMP280;35499;51.482;4.264;2023-03-01T04:44:38;103071.22;;;0.15
49593;BMP280;35499;51.482;4.264;2023-03-01T04:47:04;103077.06;;;0.14
49593;BMP280;35499;51.482;4.264;2023-03-01T04:49:29;103070.25;;;0.13
49593;BMP280;35499;51.482;4.264;2023-03-01T04:51:55;103061.78;;;0.12
49593;BMP280;35499;51.482;4.264;2023-03-01T04:54:20;103055.88;;;0.12
49593;BMP280;35499;51.482;4.264;2023-03-01T04:56:46;103055.00;;;0.11
49593;BMP280;35499;51.482;4.264;2023-03-01T04:59:11;103053.25;;;0.10
49593;BMP280;35499;51.482;4.264;2023-03-01T05:01:37;103052.19;;;0.07
49593;BMP280;35499;51.482;4.264;2023-03-01T05:04:03;103049.56;;;0.05
49593;BMP280;35499;51.482;4.264;2023-03-01T05:06:31;103045.38;;;0.06
49593;BMP280;35499;51.482;4.264;2023-03-01T05:08:56;103048.72;;;0.05
49593;BMP280;35499;51.482;4.264;2023-03-01T05:11:22;103042.69;;;0.03
49593;BMP280;35499;51.482;4.264;2023-03-01T05:13:47;103046.75;;;0.01
49593;BMP280;35499;51.482;4.264;2023-03-01T05:16:15;103032.31;;;-0.01
49593;BMP280;35499;51.482;4.264;2023-03-01T05:18:42;103024.63;;;-0.03
49593;BMP280;35499;51.482;4.264;2023-03-01T05:21:11;103014.41;;;-0.04
49593;BMP280;35499;51.482;4.264;2023-03-01T05:23:37;103016.06;;;-0.05
49593;BMP280;35499;51.482;4.264;2023-03-01T05:26:04;103015.13;;;-0.07
49593;BMP280;35499;51.482;4.264;2023-03-01T05:28:31;103002.59;;;-0.05
49593;BMP280;35499;51.482;4.264;2023-03-01T05:30:57;103011.91;;;-0.04
49593;BMP280;35499;51.482;4.264;2023-03-01T05:33:23;103000.06;;;-0.05
49593;BMP280;35499;51.482;4.264;2023-03-01T05:35:50;103000.91;;;-0.05
49593;BMP280;35499;51.482;4.264;2023-03-01T05:38:16;103005.97;;;-0.05
49593;BMP280;35499;51.482;4.264;2023-03-01T05:40:44;103002.78;;;-0.02
49593;BMP280;35499;51.482;4.264;2023-03-01T05:43:10;103002.00;;;-0.01
49593;BMP280;35499;51.482;4.264;2023-03-01T05:45:37;103000.25;;;-0.02
49593;BMP280;35499;51.482;4.264;2023-03-01T05:48:04;103005.13;;;-0.05
49593;BMP280;35499;51.482;4.264;2023-03-01T05:50:32;102999.19;;;-0.06
49593;BMP280;35499;51.482;4.264;2023-03-01T05:53:00;102996.66;;;-0.06
49593;BMP280;35499;51.482;4.264;2023-03-01T05:55:26;102998.31;;;-0.06
49593;BMP280;35499;51.482;4.264;2023-03-01T05:57:52;102996.66;;;-0.06
49593;BMP280;35499;51.482;4.264;2023-03-01T06:00:19;102984.03;;;-0.06
49593;BMP280;35499;51.482;4.264;2023-03-01T06:02:47;102986.56;;;-0.06
49593;BMP280;35499;51.482;4.264;2023-03-01T06:05:14;102987.63;;;-0.02
49593;BMP280;35499;51.482;4.264;2023-03-01T06:07:40;102981.19;;;0.02
49593;BMP280;35499;51.482;4.264;2023-03-01T06:10:07;102988.09;;;0.05
49593;BMP280;35499;51.482;4.264;2023-03-01T06:12:34;102986.34;;;0.04
49593;BMP280;35499;51.482;4.264;2023-03-01T06:15:00;102981.09;;;0.01
49593;BMP280;35499;51.482;4.264;2023-03-01T06:17:26;102984.44;;;0.00
49593;BMP280;35499;51.482;4.264;2023-03-01T06:19:53;102986.13;;;0.01
49593;BMP280;35499;51.482;4.264;2023-03-01T06:22:22;102984.69;;;0.04
49593;BMP280;35499;51.482;4.264;2023-03-01T06:24:47;102984.88;;;0.07
49593;BMP280;35499;51.482;4.264;2023-03-01T06:27:13;102996.03;;;0.11
49593;BMP280;35499;51.482;4.264;2023-03-01T06:29:38;102998.75;;;0.14
49593;BMP280;35499;51.482;4.264;2023-03-01T06:32:03;102990.47;;;0.16
49593;BMP280;35499;51.482;4.264;2023-03-01T06:34:29;102995.63;;;0.17
49593;BMP280;35499;51.482;4.264;2023-03-01T06:36:54;103004.16;;;0.19
49593;BMP280;35499;51.482;4.264;2023-03-01T06:39:20;103000.84;;;0.20
49593;BMP280;35499;51.482;4.264;2023-03-01T06:41:45;102992.31;;;0.18
49593;BMP280;35499;51.482;4.264;2023-03-01T06:44:11;102993.88;;;0.17
49593;BMP280;35499;51.482;4.264;2023-03-01T06:46:36;103001.44;;;0.17
49593;BMP280;35499;51.482;4.264;2023-03-01T06:49:02;103003.97;;;0.17
49593;BMP280;35499;51.482;4.264;2023-03-01T06:51:29;103002.41;;;0.18
49593;BMP280;35499;51.482;4.264;2023-03-01T06:53:55;103008.41;;;0.20
49593;BMP280;35499;51.482;4.264;2023-03-01T06:56:20;103010.16;;;0.21
49593;BMP280;35499;51.482;4.264;2023-03-01T06:58:45;103010.28;;;0.23
49593;BMP280;35499;51.482;4.264;2023-03-01T07:01:10;103006.19;;;0.25
49593;BMP280;35499;51.482;4.264;2023-03-01T07:03:36;103013.06;;;0.27
49593;BMP280;35499;51.482;4.264;2023-03-01T07:06:01;103008.91;;;0.28
49593;BMP280;35499;51.482;4.264;2023-03-01T07:08:26;103010.03;;;0.33
49593;BMP280;35499;51.482;4.264;2023-03-01T07:10:58;103005.09;;;0.34
49593;BMP280;35499;51.482;4.264;2023-03-01T07:13:24;103005.34;;;0.38
49593;BMP280;35499;51.482;4.264;2023-03-01T07:15:49;102989.59;;;0.42
49593;BMP280;35499;51.482;4.264;2023-03-01T07:18:15;102994.91;;;0.47
49593;BMP280;35499;51.482;4.264;2023-03-01T07:20:40;102991.78;;;0.51
49593;BMP280;35499;51.482;4.264;2023-03-01T07:23:06;102995.44;;;0.55
49593;BMP280;35499;51.482;4.264;2023-03-01T07:25:31;102990.66;;;0.60
49593;BMP280;35499;51.482;4.264;2023-03-01T07:27:57;103005.31;;;0.65
49593;BMP280;35499;51.482;4.264;2023-03-01T07:30:23;102990.50;;;0.71
49593;BMP280;35499;51.482;4.264;2023-03-01T07:32:51;102995.13;;;0.78
49593;BMP280;35499;51.482;4.264;2023-03-01T07:35:16;102993.84;;;0.84
49593;BMP280;35499;51.482;4.264;2023-03-01T07:37:42;102992.50;;;0.90
49593;BMP280;35499;51.482;4.264;2023-03-01T07:40:08;102995.66;;;1.01
49593;BMP280;35499;51.482;4.264;2023-03-01T07:42:33;102997.22;;;1.13
49593;BMP280;35499;51.482;4.264;2023-03-01T07:44:59;102991.59;;;1.76
49593;BMP280;35499;51.482;4.264;2023-03-01T07:47:24;102980.72;;;3.03
49593;BMP280;35499;51.482;4.264;2023-03-01T07:49:49;102964.31;;;4.37
49593;BMP280;35499;51.482;4.264;2023-03-01T07:52:14;102968.53;;;5.55
49593;BMP280;35499;51.482;4.264;2023-03-01T07:54:42;102952.31;;;6.63
49593;BMP280;35499;51.482;4.264;2023-03-01T07:57:09;102950.84;;;7.44
49593;BMP280;35499;51.482;4.264;2023-03-01T07:59:35;102945.13;;;8.05
49593;BMP280;35499;51.482;4.264;2023-03-01T08:02:00;102948.00;;;8.76
49593;BMP280;35499;51.482;4.264;2023-03-01T08:04:25;102946.34;;;9.44
49593;BMP280;35499;51.482;4.264;2023-03-01T08:06:52;102943.09;;;9.85
49593;BMP280;35499;51.482;4.264;2023-03-01T08:09:17;102948.72;;;10.49
49593;BMP280;35499;51.482;4.264;2023-03-01T08:11:43;102954.00;;;11.02
49593;BMP280;35499;51.482;4.264;2023-03-01T08:14:08;102952.13;;;11.40
49593;BMP280;35499;51.482;4.264;2023-03-01T08:16:34;102944.56;;;12.08
49593;BMP280;35499;51.482;4.264;2023-03-01T08:19:07;102928.84;;;12.60
49593;BMP280;35499;51.482;4.264;2023-03-01T08:21:33;102934.91;;;12.61
49593;BMP280;35499;51.482;4.264;2023-03-01T08:24:06;102941.16;;;12.82
49593;BMP280;35499;51.482;4.264;2023-03-01T08:26:32;102925.91;;;13.06
49593;BMP280;35499;51.482;4.264;2023-03-01T08:28:58;102935.56;;;13.28
49593;BMP280;35499;51.482;4.264;2023-03-01T08:31:44;102926.25;;;13.46
49593;BMP280;35499;51.482;4.264;2023-03-01T08:34:12;102928.31;;;13.96
49593;BMP280;35499;51.482;4.264;2023-03-01T08:36:40;102919.91;;;14.51
49593;BMP280;35499;51.482;4.264;2023-03-01T08:39:06;102919.91;;;14.43
49593;BMP280;35499;51.482;4.264;2023-03-01T08:41:32;102914.69;;;14.37
49593;BMP280;35499;51.482;4.264;2023-03-01T08:43:58;102900.13;;;14.71
49593;BMP280;35499;51.482;4.264;2023-03-01T08:46:27;102901.88;;;14.91
49593;BMP280;35499;51.482;4.264;2023-03-01T08:48:53;102896.75;;;15.23
49593;BMP280;35499;51.482;4.264;2023-03-01T08:51:20;102889.81;;;15.58
49593;BMP280;35499;51.482;4.264;2023-03-01T08:53:45;102882.81;;;15.84
49593;BMP280;35499;51.482;4.264;2023-03-01T08:56:11;102887.81;;;16.30
49593;BMP280;35499;51.482;4.264;2023-03-01T08:58:37;102882.47;;;16.57
49593;BMP280;35499;51.482;4.264;2023-03-01T09:01:09;102877.06;;;16.86
49593;BMP280;35499;51.482;4.264;2023-03-01T09:03:35;102863.16;;;16.99
49593;BMP280;35499;51.482;4.264;2023-03-01T09:06:01;102868.16;;;17.22
49593;BMP280;35499;51.482;4.264;2023-03-01T09:08:27;102871.09;;;16.77
49593;BMP280;35499;51.482;4.264;2023-03-01T09:10:52;102857.84;;;17.10
49593;BMP280;35499;51.482;4.264;2023-03-01T09:13:17;102858.44;;;17.38
49593;BMP280;35499;51.482;4.264;2023-03-01T09:15:43;102852.81;;;17.78
49593;BMP280;35499;51.482;4.264;2023-03-01T09:18:08;102855.56;;;17.63
49593;BMP280;35499;51.482;4.264;2023-03-01T09:20:33;102848.69;;;17.61
49593;BMP280;35499;51.482;4.264;2023-03-01T09:22:59;102845.97;;;17.73
49593;BMP280;35499;51.482;4.264;2023-03-01T09:25:24;102843.22;;;17.86
49593;BMP280;35499;51.482;4.264;2023-03-01T09:27:54;102844.28;;;17.67
49593;BMP280;35499;51.482;4.264;2023-03-01T09:30:22;102844.69;;;17.29
49593;BMP280;35499;51.482;4.264;2023-03-01T09:32:49;102833.47;;;17.24
49593;BMP280;35499;51.482;4.264;2023-03-01T09:35:14;102826.38;;;17.39
49593;BMP280;35499;51.482;4.264;2023-03-01T09:37:39;102824.31;;;17.71
49593;BMP280;35499;51.482;4.264;2023-03-01T09:40:15;102829.75;;;17.49
49593;BMP280;35499;51.482;4.264;2023-03-01T09:42:48;102833.50;;;17.23
49593;BMP280;35499;51.482;4.264;2023-03-01T09:47:54;102830.50;;;16.68
49593;BMP280;35499;51.482;4.264;2023-03-01T09:50:21;102819.94;;;16.93
49593;BMP280;35499;51.482;4.264;2023-03-01T09:53:02;102815.00;;;17.52
49593;BMP280;35499;51.482;4.264;2023-03-01T09:55:34;102812.97;;;17.74
49593;BMP280;35499;51.482;4.264;2023-03-01T10:04:40;102830.47;;;16.70
49593;BMP280;35499;51.482;4.264;2023-03-01T10:09:36;102819.09;;;16.93
49593;BMP280;35499;51.482;4.264;2023-03-01T10:12:06;102815.59;;;16.91
49593;BMP280;35499;51.482;4.264;2023-03-01T10:14:37;102805.91;;;17.13
49593;BMP280;35499;51.482;4.264;2023-03-01T10:19:49;102789.34;;;17.98
49593;BMP280;35499;51.482;4.264;2023-03-01T10:22:27;102772.94;;;17.93
49593;BMP280;35499;51.482;4.264;2023-03-01T10:24:56;102770.44;;;17.81
49593;BMP280;35499;51.482;4.264;2023-03-01T10:27:23;102770.34;;;17.90
49593;BMP280;35499;51.482;4.264;2023-03-01T10:30:10;102784.50;;;17.66
49593;BMP280;35499;51.482;4.264;2023-03-01T10:32:37;102787.31;;;17.50
49593;BMP280;35499;51.482;4.264;2023-03-01T10:35:27;102789.63;;;16.94
49593;BMP280;35499;51.482;4.264;2023-03-01T10:38:06;102786.19;;;16.89
49593;BMP280;35499;51.482;4.264;2023-03-01T10:40:33;102780.59;;;17.33
49593;BMP280;35499;51.482;4.264;2023-03-01T10:43:02;102780.19;;;17.63
49593;BMP280;35499;51.482;4.264;2023-03-01T10:45:33;102782.09;;;17.51
49593;BMP280;35499;51.482;4.264;2023-03-01T10:48:11;102786.63;;;17.35
49593;BMP280;35499;51.482;4.264;2023-03-01T10:50:39;102780.59;;;17.31
49593;BMP280;35499;51.482;4.264;2023-03-01T10:53:20;102779.19;;;17.01
49593;BMP280;35499;51.482;4.264;2023-03-01T10:55:48;102779.41;;;16.75
49593;BMP280;35499;51.482;4.264;2023-03-01T10:58:21;102769.72;;;16.96
49593;BMP280;35499;51.482;4.264;2023-03-01T11:00:54;102756.22;;;16.54
49593;BMP280;35499;51.482;4.264;2023-03-01T11:03:28;102764.19;;;16.29
49593;BMP280;35499;51.482;4.264;2023-03-01T11:06:01;102760.72;;;16.29
49593;BMP280;35499;51.482;4.264;2023-03-01T11:08:40;102748.63;;;16.32
49593;BMP280;35499;51.482;4.264;2023-03-01T11:11:14;102739.94;;;16.35
49593;BMP280;35499;51.482;4.264;2023-03-01T11:13:54;102739.19;;;16.20
49593;BMP280;35499;51.482;4.264;2023-03-01T11:16:39;102717.97;;;16.75
49593;BMP280;35499;51.482;4.264;2023-03-01T11:21:36;102709.31;;;16.78
49593;BMP280;35499;51.482;4.264;2023-03-01T11:24:08;102716.19;;;16.83
49593;BMP280;35499;51.482;4.264;2023-03-01T11:26:38;102717.78;;;16.96
49593;BMP280;35499;51.482;4.264;2023-03-01T11:29:12;102718.69;;;16.89
49593;BMP280;35499;51.482;4.264;2023-03-01T11:31:42;102717.16;;;16.70
49593;BMP280;35499;51.482;4.264;2023-03-01T11:34:13;102725.06;;;16.54
49593;BMP280;35499;51.482;4.264;2023-03-01T11:36:59;102732.38;;;16.06
49593;BMP280;35499;51.482;4.264;2023-03-01T11:39:43;102724.00;;;15.54
49593;BMP280;35499;51.482;4.264;2023-03-01T11:42:15;102725.00;;;15.28
49593;BMP280;35499;51.482;4.264;2023-03-01T11:44:43;102712.75;;;15.59
49593;BMP280;35499;51.482;4.264;2023-03-01T11:52:33;102695.84;;;16.36
49593;BMP280;35499;51.482;4.264;2023-03-01T11:55:24;102690.00;;;16.11
49593;BMP280;35499;51.482;4.264;2023-03-01T12:03:50;102720.28;;;16.06
49593;BMP280;35499;51.482;4.264;2023-03-01T12:22:46;102676.50;;;16.69
49593;BMP280;35499;51.482;4.264;2023-03-01T12:36:38;102651.97;;;16.10
49593;BMP280;35499;51.482;4.264;2023-03-01T12:50:53;102631.38;;;15.98
49593;BMP280;35499;51.482;4.264;2023-03-01T12:53:23;102637.63;;;15.61
49593;BMP280;35499;51.482;4.264;2023-03-01T12:55:50;102625.00;;;15.00
49593;BMP280;35499;51.482;4.264;2023-03-01T12:58:45;102624.25;;;14.52
49593;BMP280;35499;51.482;4.264;2023-03-01T13:04:06;102619.03;;;14.76
49593;BMP280;35499;51.482;4.264;2023-03-01T13:06:57;102629.41;;;14.49
49593;BMP280;35499;51.482;4.264;2023-03-01T13:17:58;102613.13;;;13.94
49593;BMP280;35499;51.482;4.264;2023-03-01T13:20:31;102609.69;;;13.89
49593;BMP280;35499;51.482;4.264;2023-03-01T13:23:26;102612.25;;;14.00
49593;BMP280;35499;51.482;4.264;2023-03-01T13:26:04;102617.41;;;14.22
49593;BMP280;35499;51.482;4.264;2023-03-01T13:33:56;102601.88;;;13.67
49593;BMP280;35499;51.482;4.264;2023-03-01T13:44:12;102600.13;;;13.51
49593;BMP280;35499;51.482;4.264;2023-03-01T13:46:45;102601.81;;;13.41
49593;BMP280;35499;51.482;4.264;2023-03-01T13:49:19;102591.44;;;13.20
49593;BMP280;35499;51.482;4.264;2023-03-01T13:51:46;102588.00;;;13.18
49593;BMP280;35499;51.482;4.264;2023-03-01T13:54:14;102588.84;;;13.10
49593;BMP280;35499;51.482;4.264;2023-03-01T13:56:40;102582.75;;;12.96
49593;BMP280;35499;51.482;4.264;2023-03-01T13:59:13;102575.81;;;12.85
49593;BMP280;35499;51.482;4.264;2023-03-01T14:01:40;102570.63;;;12.68
49593;BMP280;35499;51.482;4.264;2023-03-01T14:07:29;102560.94;;;12.33
49593;BMP280;35499;51.482;4.264;2023-03-01T14:10:01;102565.28;;;12.41
49593;BMP280;35499;51.482;4.264;2023-03-01T14:12:47;102563.47;;;12.26
49593;BMP280;35499;51.482;4.264;2023-03-01T14:15:29;102567.53;;;11.93
49593;BMP280;35499;51.482;4.264;2023-03-01T14:18:04;102557.00;;;11.67
49593;BMP280;35499;51.482;4.264;2023-03-01T14:20:39;102547.44;;;11.53
49593;BMP280;35499;51.482;4.264;2023-03-01T14:23:13;102535.34;;;11.43
49593;BMP280;35499;51.482;4.264;2023-03-01T14:25:47;102528.28;;;11.26
49593;BMP280;35499;51.482;4.264;2023-03-01T14:30:50;102516.06;;;11.03
49593;BMP280;35499;51.482;4.264;2023-03-01T14:33:24;102512.56;;;10.97
49593;BMP280;35499;51.482;4.264;2023-03-01T14:35:57;102510.69;;;10.83
49593;BMP280;35499;51.482;4.264;2023-03-01T14:38:51;102507.34;;;10.90
49593;BMP280;35499;51.482;4.264;2023-03-01T14:41:27;102507.44;;;11.01
49593;BMP280;35499;51.482;4.264;2023-03-01T14:44:00;102503.03;;;10.86
49593;BMP280;35499;51.482;4.264;2023-03-01T14:46:33;102509.63;;;10.65
49593;BMP280;35499;51.482;4.264;2023-03-01T14:49:29;102507.00;;;10.60
49593;BMP280;35499;51.482;4.264;2023-03-01T14:52:03;102502.72;;;10.62
49593;BMP280;35499;51.482;4.264;2023-03-01T14:54:41;102508.50;;;10.44
49593;BMP280;35499;51.482;4.264;2023-03-01T14:57:16;102513.16;;;10.09
49593;BMP280;35499;51.482;4.264;2023-03-01T14:59:42;102509.47;;;9.92
49593;BMP280;35499;51.482;4.264;2023-03-01T15:02:13;102503.97;;;9.72
49593;BMP280;35499;51.482;4.264;2023-03-01T15:04:43;102496.91;;;9.56
49593;BMP280;35499;51.482;4.264;2023-03-01T15:07:12;102504.31;;;9.42
49593;BMP280;35499;51.482;4.264;2023-03-01T15:09:39;102503.91;;;9.18
49593;BMP280;35499;51.482;4.264;2023-03-01T15:12:45;102498.56;;;9.07
49593;BMP280;35499;51.482;4.264;2023-03-01T15:17:57;102499.03;;;8.85
49593;BMP280;35499;51.482;4.264;2023-03-01T15:20:24;102493.75;;;8.76
49593;BMP280;35499;51.482;4.264;2023-03-01T15:22:51;102496.16;;;8.69
49593;BMP280;35499;51.482;4.264;2023-03-01T15:25:19;102491.75;;;8.62
49593;BMP280;35499;51.482;4.264;2023-03-01T15:27:46;102495.81;;;8.53
49593;BMP280;35499;51.482;4.264;2023-03-01T15:30:32;102494.69;;;8.40
49593;BMP280;35499;51.482;4.264;2023-03-01T15:35:50;102485.00;;;8.25
49593;BMP280;35499;51.482;4.264;2023-03-01T15:38:29;102476.47;;;8.25
49593;BMP280;35499;51.482;4.264;2023-03-01T15:40:56;102478.84;;;8.16
49593;BMP280;35499;51.482;4.264;2023-03-01T15:43:45;102476.97;;;8.09
49593;BMP280;35499;51.482;4.264;2023-03-01T15:48:52;102479.94;;;7.91
49593;BMP280;35499;51.482;4.264;2023-03-01T15:51:23;102473.81;;;7.85
49593;BMP280;35499;51.482;4.264;2023-03-01T15:53:51;102469.47;;;7.82
49593;BMP280;35499;51.482;4.264;2023-03-01T15:56:17;102470.28;;;7.80
49593;BMP280;35499;51.482;4.264;2023-03-01T15:58:45;102465.03;;;7.74
49593;BMP280;35499;51.482;4.264;2023-03-01T16:01:15;102465.75;;;7.68
49593;BMP280;35499;51.482;4.264;2023-03-01T16:03:42;102458.78;;;7.62
49593;BMP280;35499;51.482;4.264;2023-03-01T16:06:09;102456.16;;;7.59
49593;BMP280;35499;51.482;4.264;2023-03-01T16:08:35;102459.47;;;7.55
49593;BMP280;35499;51.482;4.264;2023-03-01T16:11:00;102451.66;;;7.49
49593;BMP280;35499;51.482;4.264;2023-03-01T16:13:31;102454.94;;;7.44